Pagrindinis puslapis
METAR-TAF:

METAR-TAF

Oro uostai :

Niamėjus, Nigeris

platuma: 13-29N, ilguma: 002-10E, Aukštis: 223 m

Dabartinis oras

Ataskaita buvo paskelbta 1 valandą ir 12 minutes, ne 22:00 UTC
Vėjas 2 kt iš Pietų/Pietvakarių
Temperatūra 31°C
Drėgmė 59%
Slėgis 1013 hPa
Matomumas 10 km arba daugiau
nėra debesų žemiau 1500 m ir nėra kamuolinių lietaus debesų

METAR: DRRN 202200Z 20002KT CAVOK 31/22 Q1013 NOSIG

Laikas: 00:12 (23:12 UTC)

Prognozė

Ataskaita buvo paskelbta 6 valandos ir 12 minutes, ne 17:00 UTC
Prognozė galioja nuo 20 metu 18 UTC su 21 metu 24 UTC
Vėjas 10 kt iš Pietryčių
Matomumas: 8000 m
Mažai debesys ne aukštis 3000 ft
Tikimybė 30% :
Laikinai
nuo 20 metu 19 UTC su 20 metu 24 UTC
Su prošvaistėmis ne aukštis 1400 ft
Mažai debesys ne aukštis 2000 ft, Liūtiniai kamuoliniai debesys.
perkūnija

TAF: DRRN 201700Z 2018/2124 14010KT 8000 FEW030 PROB30 TEMPO 2019/2024 TS BKN014 FEW020CB

Orai ataskaitas ir orų prognozės (METAR, TAF).

turimą stotys yra geltonos ir raudonos taškus žemėlapyje.

Perkelti pele per norėdami pamatyti stoties vardą.

Tada spustelėkite, norėdami matyti oro stebėjimo ir prognozės.

Norėdami pakeisti žemėlapį: spustelėkite ant žalios mygtukų su juodo kryžiaus žemyn,; žalią mygtuką su brūkšneliu, jei norite nutolinti; arba žalių rodyklių gretimoms žemėlapius.


METAR-TAF: